Terminal Aerodrome Forecast
Issued by NWS Twin Cities, MN

Home | Current Version | Previous Version | Text Only | Print | Product List | Glossary Off
Versions: 1 2 3 4 5 6 7 8 9 10 11 12 13 14 15 16 17 18 19 20 21 22 23 24 25 26 27 28 29 30 31

000
FTUS43 KMPX 181400 AAA
TAFMSP
TAF AMD
KMSP 181401Z 1814/1918 12002KT P6SM -SN OVC015
     FM181600 14004KT P6SM BKN018 BKN110
     FM181800 14004KT P6SM SCT020 BKN110
     FM190600 16003KT P6SM FEW025 BKN080
     FM191200 16005KT P6SM BKN040=

USA.gov is the U.S. government's official web portal to all federal, state and local government web resources and services.